Time;durP1;ratioP1;P1;durP2;ratioP2;P2;SDS_P1;SDS_P2;PMS_P1;PMS_P2;Temp;Humidity;BMP_temperature;BMP_pressure;BME280_temperature;BME280_humidity;BME280_pressure;Samples;Min_cycle;Max_cycle;Signal;HPM_P1;HPM_P2
2022/03/20 00:01:04;;;;;;;7.47;3.55;;;10.10;49.10;;;;;;5092726;28;20058;-60
2022/03/20 00:03:31;;;;;;;3.63;2.50;;;10.10;49.10;;;;;;5092302;28;20020;-60
2022/03/20 00:05:57;;;;;;;7.50;3.15;;;10.00;49.10;;;;;;5092120;28;20161;-60
2022/03/20 00:08:23;;;;;;;11.88;3.00;;;10.00;49.10;;;;;;5092226;28;20028;-60
2022/03/20 00:10:51;;;;;;;4.22;2.45;;;10.00;49.30;;;;;;5092700;28;20531;-60
2022/03/20 00:13:20;;;;;;;5.40;2.83;;;10.00;49.30;;;;;;5091500;28;20035;-65
2022/03/20 00:15:54;;;;;;;7.97;3.05;;;9.90;49.60;;;;;;5092031;28;20071;-64
2022/03/20 00:18:21;;;;;;;4.40;2.90;;;9.90;49.80;;;;;;5081080;28;20032;-64
2022/03/20 00:20:49;;;;;;;8.27;3.25;;;9.90;49.70;;;;;;5092241;28;20063;-64
2022/03/20 00:23:16;;;;;;;4.63;2.33;;;9.80;49.70;;;;;;5092102;28;20166;-64
2022/03/20 00:25:44;;;;;;;6.60;3.10;;;9.80;49.70;;;;;;5092224;28;20024;-64
2022/03/20 00:28:15;;;;;;;6.80;3.53;;;9.80;49.70;;;;;;5091096;28;20027;-64
2022/03/20 00:30:42;;;;;;;5.38;3.88;;;9.80;49.80;;;;;;5090621;28;20047;-65
2022/03/20 00:33:09;;;;;;;8.02;3.58;;;9.80;49.80;;;;;;5092205;28;20537;-64
2022/03/20 00:35:35;;;;;;;4.60;3.00;;;9.70;50.20;;;;;;5092258;28;20499;-65
2022/03/20 00:38:00;;;;;;;8.20;3.70;;;9.60;50.20;;;;;;5088233;28;20040;-65
2022/03/20 00:40:26;;;;;;;7.80;3.88;;;9.60;50.30;;;;;;5078638;28;20398;-60
2022/03/20 00:42:53;;;;;;;8.82;3.92;;;9.60;50.50;;;;;;5090054;28;20016;-64
2022/03/20 00:45:19;;;;;;;6.40;3.80;;;9.40;50.60;;;;;;5091427;28;20463;-64
2022/03/20 00:47:45;;;;;;;8.60;4.00;;;9.40;50.80;;;;;;5091382;28;20047;-63
2022/03/20 00:50:11;;;;;;;5.75;3.58;;;9.30;50.80;;;;;;5074983;28;20028;-64
2022/03/20 00:52:37;;;;;;;7.30;4.10;;;9.40;51.00;;;;;;5090121;28;20479;-60
2022/03/20 00:55:04;;;;;;;7.32;3.67;;;9.30;51.00;;;;;;5090259;28;20031;-64
2022/03/20 00:57:29;;;;;;;8.18;4.28;;;9.30;50.90;;;;;;5090922;28;20397;-65
2022/03/20 00:59:55;;;;;;;8.43;4.75;;;9.30;50.90;;;;;;5069878;28;20090;-65
2022/03/20 01:02:21;;;;;;;11.38;4.85;;;9.30;51.00;;;;;;5080153;28;20526;-65
2022/03/20 01:04:47;;;;;;;7.45;4.20;;;9.20;51.00;;;;;;5090591;28;20020;-65
2022/03/20 01:07:13;;;;;;;6.88;4.38;;;9.20;51.00;;;;;;5090926;28;20454;-65
2022/03/20 01:09:39;;;;;;;6.38;4.55;;;9.20;51.20;;;;;;5091003;28;20032;-65
2022/03/20 01:12:06;;;;;;;9.75;3.90;;;9.10;51.30;;;;;;5090546;28;20034;-65
2022/03/20 01:14:33;;;;;;;10.23;4.25;;;9.10;51.40;;;;;;5089950;28;20028;-64
2022/03/20 01:16:59;;;;;;;10.07;5.90;;;9.00;51.60;;;;;;5091070;28;20012;-64
2022/03/20 01:19:26;;;;;;;9.15;5.65;;;9.00;51.70;;;;;;5090707;28;20433;-65
2022/03/20 01:21:53;;;;;;;9.05;5.40;;;8.90;51.80;;;;;;5090837;28;20030;-65
2022/03/20 01:24:19;;;;;;;10.32;6.15;;;8.90;51.80;;;;;;5091472;28;20063;-65
2022/03/20 01:26:45;;;;;;;7.28;5.25;;;8.90;52.00;;;;;;5090066;28;20593;-64
2022/03/20 01:29:11;;;;;;;9.80;5.43;;;8.90;52.10;;;;;;5090599;28;20036;-64
2022/03/20 01:31:37;;;;;;;6.95;4.85;;;8.80;52.20;;;;;;5090148;28;20155;-60
2022/03/20 01:34:04;;;;;;;10.23;5.40;;;8.80;52.40;;;;;;5090829;28;20032;-64
2022/03/20 01:36:30;;;;;;;8.20;4.95;;;8.80;52.50;;;;;;5090736;28;20028;-64
2022/03/20 01:38:56;;;;;;;8.10;4.90;;;8.70;52.90;;;;;;5090343;28;20043;-60
2022/03/20 01:41:23;;;;;;;14.25;5.20;;;8.70;53.20;;;;;;5091024;28;20395;-60
2022/03/20 01:43:57;;;;;;;11.48;4.60;;;8.60;53.40;;;;;;5090246;28;20031;-65
2022/03/20 01:46:23;;;;;;;8.35;3.55;;;8.60;53.60;;;;;;5090418;28;20477;-64
2022/03/20 01:48:50;;;;;;;8.50;4.85;;;8.50;53.80;;;;;;5089965;28;20078;-60
2022/03/20 01:51:16;;;;;;;6.75;4.35;;;8.50;54.00;;;;;;5090701;28;20028;-60
2022/03/20 01:53:43;;;;;;;5.47;4.05;;;8.50;54.20;;;;;;5090179;28;20057;-59
2022/03/20 01:56:10;;;;;;;8.98;3.92;;;8.50;54.50;;;;;;5090925;28;20020;-64
2022/03/20 01:58:36;;;;;;;10.38;3.47;;;8.40;54.70;;;;;;5089612;28;20060;-64
2022/03/20 02:01:03;;;;;;;7.05;3.83;;;8.40;55.00;;;;;;5085193;28;20466;-59
2022/03/20 02:03:29;;;;;;;8.82;3.40;;;8.40;55.30;;;;;;5090460;28;20487;-64
2022/03/20 02:05:55;;;;;;;7.20;3.65;;;8.30;55.20;;;;;;5090334;28;20024;-64
2022/03/20 02:08:25;;;;;;;6.20;3.35;;;8.30;55.70;;;;;;5089924;28;20058;-64
2022/03/20 02:10:52;;;;;;;4.75;3.10;;;8.20;56.10;;;;;;5090697;28;20119;-64
2022/03/20 02:13:23;;;;;;;6.13;3.88;;;8.20;56.30;;;;;;5090024;28;20035;-64
2022/03/20 02:15:50;;;;;;;5.80;3.75;;;8.10;56.40;;;;;;5089229;28;20028;-60
2022/03/20 02:18:17;;;;;;;6.88;3.40;;;8.20;56.70;;;;;;5087968;28;20032;-65
2022/03/20 02:20:47;;;;;;;6.93;3.78;;;8.10;56.70;;;;;;5099304;28;20038;-65
2022/03/20 02:23:13;;;;;;;4.63;3.38;;;8.10;57.00;;;;;;5092631;28;20039;-65
2022/03/20 02:25:46;;;;;;;9.88;3.80;;;8.10;57.10;;;;;;5084938;28;20047;-60
2022/03/20 02:28:12;;;;;;;7.78;3.65;;;8.00;57.70;;;;;;5081925;28;20040;-60
2022/03/20 02:30:38;;;;;;;7.15;3.70;;;8.00;57.80;;;;;;5086987;28;20659;-60
2022/03/20 02:33:03;;;;;;;6.93;3.75;;;7.90;58.00;;;;;;5089293;28;20305;-60
2022/03/20 02:35:33;;;;;;;7.40;3.45;;;7.90;58.00;;;;;;5087895;28;20394;-65
2022/03/20 02:37:58;;;;;;;6.18;3.50;;;7.90;58.10;;;;;;5087879;28;20032;-64
2022/03/20 02:40:24;;;;;;;6.53;4.00;;;7.90;58.30;;;;;;5089550;28;20451;-64
2022/03/20 02:42:56;;;;;;;6.28;3.15;;;7.80;58.40;;;;;;5087691;28;20063;-65
2022/03/20 02:45:30;;;;;;;5.93;3.90;;;7.80;58.50;;;;;;5079729;28;20031;-60
2022/03/20 02:47:57;;;;;;;7.45;4.20;;;7.80;58.80;;;;;;5078470;28;20043;-60
2022/03/20 02:50:36;;;;;;;6.45;4.20;;;7.70;58.70;;;;;;5089900;28;20039;-65
2022/03/20 02:53:13;;;;;;;5.72;3.60;;;7.70;58.80;;;;;;5088409;28;20086;-64
2022/03/20 02:55:41;;;;;;;6.95;4.15;;;7.70;58.80;;;;;;5086077;28;20498;-65
2022/03/20 02:58:12;;;;;;;6.95;4.20;;;7.70;59.00;;;;;;5088047;28;20052;-61
2022/03/20 03:00:41;;;;;;;8.37;3.93;;;7.60;58.90;;;;;;5089130;28;20439;-65
2022/03/20 03:03:08;;;;;;;13.88;4.63;;;7.60;59.00;;;;;;5089693;28;20103;-64
2022/03/20 03:05:34;;;;;;;7.03;4.35;;;7.60;59.20;;;;;;5088041;28;20608;-65
2022/03/20 03:10:56;;;;;;;6.43;3.80;;;7.50;59.30;;;;;;5089397;28;20202;-65
2022/03/20 03:13:23;;;;;;;10.75;4.78;;;7.50;59.40;;;;;;5089077;28;20543;-64
2022/03/20 03:15:52;;;;;;;9.30;5.32;;;7.50;59.50;;;;;;5089017;28;20138;-65
2022/03/20 03:18:18;;;;;;;7.90;4.65;;;7.40;59.70;;;;;;5087941;28;20177;-65
2022/03/20 03:20:45;;;;;;;7.78;5.18;;;7.40;59.80;;;;;;5088877;28;20028;-64
2022/03/20 03:23:11;;;;;;;10.27;4.50;;;7.40;59.90;;;;;;5088804;28;20043;-65
2022/03/20 03:25:38;;;;;;;8.20;4.57;;;7.30;59.80;;;;;;5087773;28;20474;-65
2022/03/20 03:28:05;;;;;;;9.48;4.13;;;7.30;59.60;;;;;;5087835;28;20043;-64
2022/03/20 03:30:31;;;;;;;12.13;5.03;;;7.40;59.60;;;;;;5088653;28;20467;-65
2022/03/20 03:32:57;;;;;;;8.88;5.18;;;7.30;59.60;;;;;;5088481;28;20024;-65
2022/03/20 03:38:16;;;;;;;9.13;5.57;;;7.30;59.40;;;;;;5088111;28;20038;-61
2022/03/20 03:40:44;;;;;;;9.13;5.40;;;7.30;59.40;;;;;;5088444;28;20024;-60
2022/03/20 03:43:10;;;;;;;10.82;6.15;;;7.30;59.50;;;;;;5088264;28;20558;-64
2022/03/20 03:45:39;;;;;;;9.40;5.43;;;7.30;59.60;;;;;;5075613;28;20036;-64
2022/03/20 03:48:05;;;;;;;12.52;6.05;;;7.20;59.50;;;;;;5068082;28;20031;-64
2022/03/20 03:50:30;;;;;;;10.43;5.20;;;7.20;59.60;;;;;;5068602;28;20025;-60
2022/03/20 03:52:56;;;;;;;12.23;6.03;;;7.20;59.70;;;;;;5068678;28;20086;-60
2022/03/20 03:55:22;;;;;;;11.23;5.55;;;7.20;59.50;;;;;;5084760;28;20029;-60
2022/03/20 03:57:49;;;;;;;9.10;5.90;;;7.20;59.60;;;;;;5083050;28;20082;-60
2022/03/20 04:00:20;;;;;;;9.25;5.13;;;7.20;59.60;;;;;;5086011;28;20123;-60
2022/03/20 04:02:46;;;;;;;9.60;5.38;;;7.20;59.40;;;;;;5088158;28;20110;-60
2022/03/20 04:05:14;;;;;;;11.68;5.55;;;7.20;59.50;;;;;;5087082;28;20024;-60
2022/03/20 04:07:40;;;;;;;14.20;5.63;;;7.20;59.50;;;;;;5087730;28;20032;-65
2022/03/20 04:10:07;;;;;;;12.48;6.63;;;7.20;59.40;;;;;;5088529;28;20111;-64
2022/03/20 04:12:36;;;;;;;8.35;5.28;;;7.20;59.30;;;;;;5086889;28;20024;-60
2022/03/20 04:15:02;;;;;;;11.25;6.47;;;7.20;59.40;;;;;;5085642;28;20044;-60
2022/03/20 04:17:29;;;;;;;11.77;6.18;;;7.20;59.40;;;;;;5087741;28;20032;-59
2022/03/20 04:19:59;;;;;;;11.65;6.57;;;7.20;59.30;;;;;;5086316;28;20616;-60
2022/03/20 04:22:25;;;;;;;12.20;6.75;;;7.20;59.40;;;;;;5088751;28;20028;-60
2022/03/20 04:24:52;;;;;;;14.48;7.13;;;7.20;59.30;;;;;;5088701;28;20115;-60
2022/03/20 04:27:18;;;;;;;13.38;6.72;;;7.20;59.30;;;;;;5087120;28;20050;-65
2022/03/20 04:29:45;;;;;;;10.77;6.72;;;7.20;59.20;;;;;;5086276;28;20020;-64
2022/03/20 04:32:13;;;;;;;10.38;6.63;;;7.20;59.00;;;;;;5087849;28;20056;-65
2022/03/20 04:34:43;;;;;;;12.68;6.22;;;7.20;59.00;;;;;;5088353;28;20111;-65
2022/03/20 04:37:10;;;;;;;11.70;6.63;;;7.20;58.90;;;;;;5089031;28;20463;-64
2022/03/20 04:39:37;;;;;;;16.23;6.57;;;7.20;58.80;;;;;;5091046;28;20050;-59
2022/03/20 04:42:04;;;;;;;10.68;6.50;;;7.20;58.60;;;;;;5089345;28;20028;-61
2022/03/20 04:44:30;;;;;;;10.93;6.40;;;7.20;58.60;;;;;;5090778;28;20070;-60
2022/03/20 04:46:56;;;;;;;12.13;6.30;;;7.20;58.50;;;;;;5089908;28;20032;-64
2022/03/20 05:00:23;;;;;;;11.27;7.05;;;7.10;58.10;;;;;;5099275;28;20050;-60
2022/03/20 05:02:49;;;;;;;11.15;6.72;;;7.10;58.00;;;;;;5103101;28;20024;-60
2022/03/20 05:05:16;;;;;;;10.65;6.75;;;7.10;57.90;;;;;;5095803;28;20549;-60
2022/03/20 05:07:42;;;;;;;15.15;7.20;;;7.10;58.00;;;;;;5090006;28;20028;-60
2022/03/20 05:15:36;;;;;;;12.93;6.85;;;7.20;57.80;;;;;;5098778;28;20078;-64
2022/03/20 05:18:03;;;;;;;12.32;7.32;;;7.20;57.50;;;;;;5093682;28;20040;-60
2022/03/20 05:20:29;;;;;;;13.27;6.85;;;7.10;57.40;;;;;;5099366;28;20057;-60
2022/03/20 05:22:55;;;;;;;12.10;7.00;;;7.20;57.30;;;;;;5097478;28;20111;-64
2022/03/20 05:25:21;;;;;;;16.95;7.28;;;7.20;57.30;;;;;;5092333;28;20152;-65
2022/03/20 05:27:47;;;;;;;13.73;7.28;;;7.10;57.20;;;;;;5094704;28;20024;-64
2022/03/20 05:30:13;;;;;;;13.38;7.22;;;7.10;57.10;;;;;;5099741;28;20414;-64
2022/03/20 05:32:40;;;;;;;14.90;7.82;;;7.10;57.10;;;;;;5110309;28;20035;-65
2022/03/20 05:35:08;;;;;;;17.80;7.65;;;7.10;57.00;;;;;;5092904;28;20028;-65
2022/03/20 05:37:34;;;;;;;24.55;7.22;;;7.10;57.10;;;;;;5102235;28;20032;-65
2022/03/20 05:40:00;;;;;;;11.23;6.30;;;7.10;57.00;;;;;;5089893;28;20484;-64
2022/03/20 05:42:26;;;;;;;13.13;7.10;;;7.10;57.00;;;;;;5088051;28;20026;-64
2022/03/20 05:44:52;;;;;;;15.80;7.43;;;7.10;56.90;;;;;;5103414;28;20404;-60
2022/03/20 05:47:18;;;;;;;16.35;8.00;;;7.10;56.80;;;;;;5110257;28;20108;-60
2022/03/20 05:49:43;;;;;;;15.63;7.40;;;7.10;56.80;;;;;;5092374;28;20467;-60
2022/03/20 05:52:09;;;;;;;10.25;6.47;;;7.10;56.70;;;;;;5089716;28;20454;-64
2022/03/20 05:54:35;;;;;;;14.27;6.78;;;7.10;56.60;;;;;;5089495;28;20024;-64
2022/03/20 05:59:46;;;;;;;14.93;7.80;;;7.10;56.50;;;;;;5088045;28;20137;-65
2022/03/20 06:02:12;;;;;;;12.63;7.07;;;7.10;56.50;;;;;;5089307;28;20046;-65
2022/03/20 06:04:38;;;;;;;14.55;8.35;;;7.00;56.30;;;;;;5088667;28;20119;-64
2022/03/20 06:07:05;;;;;;;15.02;6.70;;;7.10;56.40;;;;;;5091571;28;20028;-65
2022/03/20 06:09:30;;;;;;;14.82;7.57;;;7.10;56.30;;;;;;5088489;28;20399;-63
2022/03/20 06:11:56;;;;;;;15.60;7.60;;;7.10;56.20;;;;;;5090052;28;20020;-63
2022/03/20 06:14:23;;;;;;;12.02;7.78;;;7.00;56.20;;;;;;5096729;28;20067;-61
2022/03/20 06:16:49;;;;;;;16.98;7.18;;;7.00;56.20;;;;;;5089561;28;20024;-61
2022/03/20 06:19:16;;;;;;;16.67;7.75;;;7.00;56.10;;;;;;5099094;28;20063;-60
2022/03/20 06:21:43;;;;;;;14.20;6.55;;;7.00;55.90;;;;;;5102768;28;20368;-61
2022/03/20 06:24:09;;;;;;;18.08;7.50;;;7.00;55.80;;;;;;5093416;28;20035;-60
2022/03/20 06:26:36;;;;;;;15.30;7.35;;;7.00;55.70;;;;;;5087337;28;20032;-61
2022/03/20 06:29:05;;;;;;;17.15;8.40;;;7.00;55.80;;;;;;5084292;28;20020;-62
2022/03/20 06:31:31;;;;;;;20.42;8.40;;;7.00;55.80;;;;;;5092710;28;20494;-61
2022/03/20 06:33:57;;;;;;;11.68;7.60;;;7.10;55.80;;;;;;5088317;28;20105;-61
2022/03/20 06:36:23;;;;;;;14.52;8.93;;;7.10;55.70;;;;;;5080983;28;20070;-62
2022/03/20 06:38:49;;;;;;;15.18;8.57;;;7.10;55.40;;;;;;5081893;28;20089;-61
2022/03/20 06:41:15;;;;;;;19.73;8.60;;;7.10;55.30;;;;;;5096275;28;20453;-60
2022/03/20 06:43:40;;;;;;;22.30;8.93;;;7.10;55.20;;;;;;5087597;28;20050;-63
2022/03/20 06:46:07;;;;;;;14.73;8.82;;;7.10;55.10;;;;;;5094876;28;20036;-63
2022/03/20 06:48:33;;;;;;;14.80;8.00;;;7.10;54.90;;;;;;5089648;28;20115;-65
2022/03/20 06:50:59;;;;;;;14.93;9.20;;;7.10;55.00;;;;;;5088025;28;20032;-59
2022/03/20 06:53:25;;;;;;;16.77;9.02;;;7.00;54.70;;;;;;5086878;28;20024;-60
2022/03/20 06:55:52;;;;;;;14.52;8.80;;;7.00;54.60;;;;;;5092894;28;20131;-61
2022/03/20 06:58:20;;;;;;;18.60;9.40;;;7.00;54.70;;;;;;5088227;28;20115;-59
2022/03/20 07:00:46;;;;;;;19.67;8.98;;;7.00;54.60;;;;;;5086424;28;20032;-60
2022/03/20 07:03:12;;;;;;;14.98;9.05;;;6.90;54.60;;;;;;5086740;28;20459;-62
2022/03/20 07:05:39;;;;;;;13.05;8.63;;;6.90;54.60;;;;;;5086220;28;20032;-59
2022/03/20 07:08:06;;;;;;;17.88;8.95;;;6.90;54.50;;;;;;5085668;28;20028;-58
2022/03/20 07:10:33;;;;;;;18.85;8.80;;;6.90;54.20;;;;;;5097054;28;20024;-59
2022/03/20 07:15:45;;;;;;;14.20;8.73;;;6.80;54.20;;;;;;5084200;28;20501;-60
2022/03/20 07:18:12;;;;;;;12.88;8.77;;;6.80;54.10;;;;;;5092125;28;20039;-60
2022/03/20 07:20:39;;;;;;;16.08;8.75;;;6.90;54.10;;;;;;5092843;28;20030;-61
2022/03/20 07:23:09;;;;;;;13.68;7.85;;;6.90;54.00;;;;;;5090436;28;20024;-61
2022/03/20 07:31:09;;;;;;;17.25;9.20;;;6.90;53.40;;;;;;5088142;28;20525;-59
2022/03/20 07:33:35;;;;;;;16.52;9.75;;;7.00;53.30;;;;;;5083210;28;20028;-63
2022/03/20 07:36:01;;;;;;;15.63;9.00;;;7.00;53.30;;;;;;5089608;28;20513;-59
2022/03/20 07:38:27;;;;;;;14.55;9.07;;;7.10;53.20;;;;;;5085933;28;20039;-61
2022/03/20 07:40:53;;;;;;;16.88;9.05;;;7.10;53.10;;;;;;5085554;28;20039;-61
2022/03/20 07:43:19;;;;;;;20.83;9.20;;;7.20;52.90;;;;;;5061937;28;20032;-61
2022/03/20 07:45:45;;;;;;;14.23;8.57;;;7.20;52.70;;;;;;5088333;28;20044;-61
2022/03/20 07:48:11;;;;;;;18.98;8.88;;;7.20;52.60;;;;;;5088334;28;20032;-61
2022/03/20 07:50:38;;;;;;;15.80;8.85;;;7.20;52.50;;;;;;5087776;28;20029;-61
2022/03/20 07:53:04;;;;;;;19.63;9.10;;;7.30;52.40;;;;;;5075065;28;20054;-61
2022/03/20 07:55:30;;;;;;;15.32;9.80;;;7.30;52.10;;;;;;5072403;28;20103;-61
2022/03/20 07:57:57;;;;;;;19.02;9.43;;;7.30;52.60;;;;;;5079709;28;20107;-61
2022/03/20 08:00:23;;;;;;;16.73;9.25;;;7.40;51.90;;;;;;5077683;28;20031;-62
2022/03/20 08:02:51;;;;;;;13.20;8.45;;;7.40;51.70;;;;;;5087491;28;20460;-61
2022/03/20 08:05:17;;;;;;;18.30;9.73;;;7.50;51.60;;;;;;5086536;28;20032;-61
2022/03/20 08:07:43;;;;;;;21.20;10.73;;;7.50;51.20;;;;;;5070486;28;20376;-62
2022/03/20 08:10:11;;;;;;;18.80;10.27;;;7.50;50.50;;;;;;5087885;28;20039;-61
2022/03/20 08:12:37;;;;;;;12.73;9.18;;;7.50;50.50;;;;;;5086280;28;20039;-61
2022/03/20 08:15:04;;;;;;;15.20;9.38;;;7.50;50.50;;;;;;5093376;28;20043;-61
2022/03/20 08:17:30;;;;;;;21.55;10.38;;;7.50;50.50;;;;;;5091517;28;20063;-64
2022/03/20 08:19:56;;;;;;;23.27;8.73;;;7.50;50.70;;;;;;5092027;28;20059;-64
2022/03/20 08:22:22;;;;;;;18.80;10.07;;;7.50;50.20;;;;;;5093212;28;20032;-64
2022/03/20 08:24:48;;;;;;;20.02;11.10;;;7.60;50.10;;;;;;5093205;28;20062;-63
2022/03/20 08:27:14;;;;;;;18.67;11.90;;;7.60;50.00;;;;;;5091890;28;20089;-64
2022/03/20 08:29:40;;;;;;;21.08;12.35;;;7.60;49.80;;;;;;5092768;28;20036;-64
2022/03/20 08:32:07;;;;;;;20.45;11.68;;;7.60;49.40;;;;;;5096799;28;20109;-63
2022/03/20 08:34:35;;;;;;;19.48;11.82;;;7.60;49.40;;;;;;5101055;28;20043;-63
2022/03/20 08:37:00;;;;;;;17.50;11.43;;;7.70;49.30;;;;;;5088578;28;20040;-64
2022/03/20 08:39:26;;;;;;;22.67;11.75;;;7.70;49.30;;;;;;5092471;28;20081;-64
2022/03/20 08:41:52;;;;;;;17.52;10.90;;;7.80;49.20;;;;;;5092409;28;20036;-64
2022/03/20 08:44:18;;;;;;;21.05;11.63;;;7.90;49.30;;;;;;5092725;28;20085;-63
2022/03/20 08:46:44;;;;;;;17.10;11.90;;;8.00;49.00;;;;;;5092653;28;20036;-63
2022/03/20 08:49:09;;;;;;;19.65;11.85;;;8.00;48.80;;;;;;5090647;28;20099;-63
2022/03/20 08:51:40;;;;;;;18.17;11.15;;;8.10;48.70;;;;;;5085876;28;20028;-62
2022/03/20 08:54:06;;;;;;;21.48;11.50;;;8.20;48.60;;;;;;5080507;28;20535;-63
2022/03/20 08:56:33;;;;;;;15.98;10.68;;;8.20;48.40;;;;;;5092128;28;20036;-63
2022/03/20 08:58:59;;;;;;;20.60;12.40;;;8.20;48.30;;;;;;5091756;28;20085;-63
2022/03/20 09:01:25;;;;;;;20.65;11.80;;;8.20;48.20;;;;;;5092778;28;20487;-63
2022/03/20 09:03:52;;;;;;;22.42;12.43;;;8.30;47.80;;;;;;5092740;28;20028;-63
2022/03/20 09:06:19;;;;;;;20.02;11.57;;;8.30;47.60;;;;;;5092419;28;20032;-63
2022/03/20 09:08:45;;;;;;;18.42;11.18;;;8.30;47.70;;;;;;5091121;28;20131;-63
2022/03/20 09:11:11;;;;;;;20.50;11.45;;;8.30;47.70;;;;;;5072355;28;20039;-63
2022/03/20 09:13:37;;;;;;;22.15;11.85;;;8.30;47.40;;;;;;5081560;28;20040;-63
2022/03/20 09:18:59;;;;;;;16.35;11.05;;;8.30;47.20;;;;;;5087766;28;20121;-64
2022/03/20 09:21:28;;;;;;;22.85;12.90;;;8.40;47.10;;;;;;5080078;28;20028;-63
2022/03/20 09:23:54;;;;;;;21.65;11.60;;;8.40;46.80;;;;;;5093527;28;20463;-64
2022/03/20 09:26:20;;;;;;;21.05;11.85;;;8.40;46.10;;;;;;5085711;28;20028;-61
2022/03/20 09:28:47;;;;;;;17.65;11.43;;;8.40;46.20;;;;;;5088002;28;20028;-61
2022/03/20 09:31:13;;;;;;;21.98;11.70;;;8.40;46.30;;;;;;5088662;28;20075;-63
2022/03/20 09:33:40;;;;;;;18.08;11.05;;;8.50;46.60;;;;;;5085153;28;20024;-62
2022/03/20 09:36:06;;;;;;;20.88;10.82;;;8.50;46.60;;;;;;5086430;28;20115;-63
2022/03/20 09:38:33;;;;;;;20.73;10.90;;;8.50;46.80;;;;;;5085165;28;20023;-63
2022/03/20 09:41:03;;;;;;;21.38;12.55;;;8.60;46.50;;;;;;5081834;28;20032;-61
2022/03/20 09:43:31;;;;;;;18.42;11.60;;;8.60;46.70;;;;;;5076639;28;20060;-61
2022/03/20 09:45:57;;;;;;;20.70;10.98;;;8.70;46.90;;;;;;5076740;28;20031;-61
2022/03/20 09:48:25;;;;;;;16.08;10.90;;;8.90;46.90;;;;;;5079848;28;20479;-61
2022/03/20 09:50:51;;;;;;;19.70;11.40;;;9.10;46.30;;;;;;5079196;28;20551;-62
2022/03/20 09:53:16;;;;;;;21.80;12.02;;;9.20;46.10;;;;;;5078115;28;20060;-64
2022/03/20 09:55:43;;;;;;;24.15;11.00;;;9.40;46.00;;;;;;5078969;28;20101;-64
2022/03/20 09:58:09;;;;;;;21.33;12.00;;;9.60;45.50;;;;;;5084759;28;20101;-64
2022/03/20 10:00:35;;;;;;;17.77;12.70;;;9.80;45.20;;;;;;5076544;28;20036;-63
2022/03/20 10:03:17;;;;;;;21.05;12.20;;;9.90;44.20;;;;;;5073827;28;20029;-62
2022/03/20 10:05:43;;;;;;;24.73;11.95;;;10.00;44.30;;;;;;5076976;28;20051;-62
2022/03/20 10:08:16;;;;;;;20.80;12.45;;;10.00;44.40;;;;;;5080863;28;20024;-64
2022/03/20 10:10:42;;;;;;;23.05;13.07;;;10.10;44.10;;;;;;5080994;28;20081;-64
2022/03/20 10:13:13;;;;;;;21.60;12.25;;;10.20;44.20;;;;;;5080028;28;20425;-64
2022/03/20 10:15:41;;;;;;;30.77;14.15;;;10.30;44.00;;;;;;5086200;28;20028;-64
2022/03/20 10:18:17;;;;;;;16.58;11.23;;;10.40;43.40;;;;;;5080993;28;20033;-64
2022/03/20 10:20:59;;;;;;;21.27;13.30;;;10.50;43.10;;;;;;5083736;28;20020;-63
2022/03/20 10:23:41;;;;;;;21.67;11.48;;;10.60;43.40;;;;;;5088883;28;20467;-62
2022/03/20 10:26:11;;;;;;;;;;;10.70;43.70;;;;;;5088307;28;21161;-62
2022/03/20 10:28:39;;;;;;;22.40;12.05;;;10.90;43.30;;;;;;5108953;27;19916;-64
2022/03/20 10:31:15;;;;;;;24.20;12.50;;;10.90;43.20;;;;;;5087563;28;20040;-64
2022/03/20 10:33:43;;;;;;;19.50;12.70;;;11.00;43.00;;;;;;5086693;28;20053;-63
2022/03/20 10:36:16;;;;;;;18.98;12.82;;;11.10;43.20;;;;;;5089041;28;20024;-63
2022/03/20 10:38:47;;;;;;;19.08;11.30;;;11.10;43.30;;;;;;5089561;28;20028;-59
2022/03/20 10:41:23;;;;;;;23.33;12.43;;;11.10;42.60;;;;;;5088023;28;20025;-59
2022/03/20 10:43:50;;;;;;;18.25;11.18;;;11.00;42.80;;;;;;5086437;28;20039;-63
2022/03/20 10:46:24;;;;;;;18.27;11.60;;;10.90;42.80;;;;;;5086954;28;20776;-59
2022/03/20 10:48:55;;;;;;;21.90;11.38;;;10.90;42.80;;;;;;5086804;28;20024;-59
2022/03/20 10:51:38;;;;;;;20.27;10.88;;;10.90;43.10;;;;;;5084918;28;20051;-59
2022/03/20 10:54:09;;;;;;;22.13;10.90;;;10.80;43.30;;;;;;5084521;28;20066;-59
2022/03/20 10:56:56;;;;;;;19.13;11.48;;;10.70;43.30;;;;;;5081041;28;20024;-59
2022/03/20 10:59:23;;;;;;;20.08;11.13;;;10.60;43.40;;;;;;5087580;28;20048;-63
2022/03/20 11:01:49;;;;;;;23.65;10.98;;;10.50;43.30;;;;;;5085802;28;20063;-58
2022/03/20 11:04:16;;;;;;;16.90;10.43;;;10.40;43.30;;;;;;5085580;28;20043;-62
2022/03/20 11:06:44;;;;;;;19.98;11.25;;;10.30;43.60;;;;;;5084444;28;20021;-60
2022/03/20 11:09:10;;;;;;;14.88;10.77;;;10.30;43.60;;;;;;5086010;28;20035;-60
2022/03/20 11:11:58;;;;;;;20.38;11.48;;;10.20;43.70;;;;;;5083788;28;20655;-53
2022/03/20 11:14:26;;;;;;;18.52;11.02;;;10.20;43.90;;;;;;5087509;28;20483;-58
2022/03/20 11:17:06;;;;;;;18.52;10.48;;;10.10;43.90;;;;;;5085673;28;20058;-58
2022/03/20 11:19:34;;;;;;;18.83;10.45;;;10.10;44.00;;;;;;5086828;28;20032;-59
2022/03/20 11:22:09;;;;;;;19.67;11.73;;;10.10;44.20;;;;;;5086992;28;20386;-57
2022/03/20 11:24:36;;;;;;;18.77;10.85;;;10.00;44.30;;;;;;5084626;28;20036;-59
2022/03/20 11:27:04;;;;;;;22.08;11.25;;;10.00;44.60;;;;;;5083264;28;20023;-59
2022/03/20 11:29:36;;;;;;;22.02;11.52;;;10.00;44.80;;;;;;5084890;28;20063;-53
2022/03/20 11:32:02;;;;;;;24.33;14.52;;;10.00;44.90;;;;;;5085560;28;20502;-55
2022/03/20 11:34:30;;;;;;;28.27;14.95;;;10.00;44.80;;;;;;5085213;28;20032;-58
2022/03/20 11:37:10;;;;;;;23.30;13.88;;;10.00;44.90;;;;;;5110446;27;20421;-60
2022/03/20 11:39:38;;;;;;;28.00;14.52;;;10.00;45.10;;;;;;5085692;28;20035;-56
2022/03/20 11:42:26;;;;;;;26.20;14.32;;;10.00;45.20;;;;;;5085970;28;20119;-57
2022/03/20 11:45:14;;;;;;;23.08;14.07;;;10.00;45.60;;;;;;5084603;28;20073;-57
2022/03/20 11:47:42;;;;;;;25.38;13.63;;;10.00;45.40;;;;;;5087227;28;20024;-56
2022/03/20 11:50:25;;;;;;;24.67;15.45;;;10.00;45.50;;;;;;5089645;28;20103;-60
2022/03/20 11:53:04;;;;;;;26.30;14.73;;;10.00;45.60;;;;;;5084989;28;20021;-59
2022/03/20 11:55:41;;;;;;;29.45;16.52;;;10.00;46.00;;;;;;5085196;28;20066;-60
2022/03/20 11:58:16;;;;;;;23.70;15.18;;;10.10;45.60;;;;;;5087101;28;20035;-60
2022/03/20 12:00:44;;;;;;;24.02;15.35;;;10.10;45.60;;;;;;5087526;28;20032;-59
2022/03/20 12:03:21;;;;;;;21.65;13.60;;;10.20;46.00;;;;;;5072944;28;20503;-60
2022/03/20 12:05:55;;;;;;;22.92;14.27;;;10.10;45.80;;;;;;5086388;28;20143;-60
2022/03/20 12:08:35;;;;;;;23.10;14.77;;;10.20;46.10;;;;;;5080510;28;20463;-59
2022/03/20 12:11:16;;;;;;;26.67;14.35;;;10.20;45.90;;;;;;5083786;28;20155;-58
2022/03/20 12:13:47;;;;;;;19.95;13.68;;;10.30;46.00;;;;;;5084389;28;20170;-57
2022/03/20 12:16:42;;;;;;;21.35;14.30;;;10.30;46.00;;;;;;5072217;28;20024;-58
2022/03/20 12:19:09;;;;;;;23.33;15.15;;;10.40;45.80;;;;;;5090677;28;20386;-59
2022/03/20 12:21:58;;;;;;;29.17;15.48;;;10.40;46.10;;;;;;5086475;28;20028;-60
2022/03/20 12:24:36;;;;;;;25.10;16.13;;;10.40;45.70;;;;;;5075425;28;20498;-59
2022/03/20 12:27:25;;;;;;;25.58;14.88;;;10.40;45.80;;;;;;5080846;28;20469;-59
2022/03/20 12:30:03;;;;;;;26.60;15.45;;;10.40;45.80;;;;;;5072852;28;20068;-59
2022/03/20 12:32:46;;;;;;;27.27;16.00;;;10.40;45.80;;;;;;5085195;28;20518;-60
2022/03/20 12:35:15;;;;;;;23.67;14.65;;;10.40;45.60;;;;;;5075410;28;20032;-59
2022/03/20 12:37:42;;;;;;;25.85;15.52;;;10.40;45.80;;;;;;5069274;28;20467;-59
2022/03/20 12:40:30;;;;;;;29.80;15.32;;;10.30;45.80;;;;;;5083871;28;20065;-59
2022/03/20 12:43:15;;;;;;;19.85;14.63;;;10.30;45.90;;;;;;5084966;28;20028;-61
2022/03/20 12:45:44;;;;;;;23.25;14.90;;;10.40;46.30;;;;;;5084145;28;20062;-60
2022/03/20 12:48:15;;;;;;;29.75;14.77;;;10.40;46.30;;;;;;5084124;28;20107;-61
2022/03/20 12:50:44;;;;;;;25.27;14.60;;;10.40;46.40;;;;;;5078812;28;20507;-60
2022/03/20 12:53:16;;;;;;;21.70;14.07;;;10.50;46.50;;;;;;5083720;28;20097;-60
2022/03/20 12:56:01;;;;;;;21.50;14.27;;;10.50;46.30;;;;;;5076961;28;20036;-61
2022/03/20 12:58:28;;;;;;;24.67;14.68;;;10.50;46.50;;;;;;5074278;28;20028;-61
2022/03/20 13:00:58;;;;;;;21.45;15.35;;;10.50;47.10;;;;;;5085244;28;20032;-60
2022/03/20 13:03:26;;;;;;;23.63;14.25;;;10.50;46.60;;;;;;5078339;28;20394;-60
2022/03/20 13:05:53;;;;;;;21.17;14.52;;;10.50;46.60;;;;;;5089143;28;20139;-57
2022/03/20 13:08:27;;;;;;;25.48;15.10;;;10.50;46.60;;;;;;5080328;28;20047;-60
2022/03/20 13:11:06;;;;;;;24.45;15.20;;;10.50;46.50;;;;;;5098746;28;20024;-59
2022/03/20 13:13:36;;;;;;;26.05;15.80;;;10.40;46.70;;;;;;5085342;28;20326;-59
2022/03/20 13:16:15;;;;;;;23.65;14.82;;;10.40;46.70;;;;;;5080430;28;20047;-60
2022/03/20 13:18:40;;;;;;;24.73;15.07;;;10.40;46.90;;;;;;5085540;28;20571;-59
2022/03/20 13:21:07;;;;;;;22.42;14.75;;;10.40;47.00;;;;;;5082739;28;20033;-60
2022/03/20 13:23:34;;;;;;;24.45;14.68;;;10.30;47.20;;;;;;5079665;28;20073;-59
2022/03/20 13:26:00;;;;;;;26.80;15.93;;;10.30;47.80;;;;;;5084932;28;20455;-60